Time;durP1;ratioP1;P1;durP2;ratioP2;P2;SDS_P1;SDS_P2;PMS_P1;PMS_P2;Temp;Humidity;BMP_temperature;BMP_pressure;BME280_temperature;BME280_humidity;BME280_pressure;Samples;Min_cycle;Max_cycle;Signal;HPM_P1;HPM_P2
2022/07/26 00:01:23;;;;;;;15.98;2.50;;;;;;;;;;5051971;28;20474;-78
2022/07/26 00:03:49;;;;;;;15.82;2.53;;;;;;;;;;5051635;28;20040;-78
2022/07/26 00:06:15;;;;;;;12.75;2.10;;;;;;;;;;5052252;28;20033;-77
2022/07/26 00:08:41;;;;;;;15.70;3.33;;;;;;;;;;5051822;28;20120;-77
2022/07/26 00:11:07;;;;;;;16.50;3.08;;;;;;;;;;5051837;28;20025;-77
2022/07/26 00:13:34;;;;;;;15.38;2.63;;;;;;;;;;5052086;28;20032;-78
2022/07/26 00:16:00;;;;;;;18.75;2.40;;;;;;;;;;5052301;28;20025;-77
2022/07/26 00:18:26;;;;;;;18.13;2.65;;;;;;;;;;5050644;28;20041;-78
2022/07/26 00:20:52;;;;;;;16.27;2.47;;;;;;;;;;5051954;28;20033;-78
2022/07/26 00:23:18;;;;;;;18.50;3.10;;;;;;;;;;5052073;28;20104;-77
2022/07/26 00:25:45;;;;;;;24.75;2.88;;;;;;;;;;5051916;28;20155;-78
2022/07/26 00:28:11;;;;;;;19.77;2.63;;;;;;;;;;5051980;28;20409;-78
2022/07/26 00:30:37;;;;;;;16.90;2.63;;;;;;;;;;5051779;28;20489;-77
2022/07/26 00:33:03;;;;;;;20.48;3.20;;;;;;;;;;5054975;28;20031;-77
2022/07/26 00:35:29;;;;;;;22.95;3.28;;;;;;;;;;5055886;28;20032;-77
2022/07/26 00:37:55;;;;;;;15.43;2.95;;;;;;;;;;5055508;28;20017;-77
2022/07/26 00:40:21;;;;;;;13.07;2.75;;;;;;;;;;5055432;28;20757;-77
2022/07/26 00:42:47;;;;;;;13.70;2.67;;;;;;;;;;5055709;28;20083;-78
2022/07/26 00:45:14;;;;;;;16.27;2.88;;;;;;;;;;5055570;28;20028;-77
2022/07/26 00:47:40;;;;;;;12.32;2.28;;;;;;;;;;5055545;28;20027;-77
2022/07/26 00:50:07;;;;;;;18.67;2.60;;;;;;;;;;5055617;28;20029;-77
2022/07/26 00:52:33;;;;;;;14.55;3.47;;;;;;;;;;5055729;28;20027;-78
2022/07/26 00:54:59;;;;;;;18.48;2.80;;;;;;;;;;5055687;28;20033;-78
2022/07/26 00:57:25;;;;;;;16.75;2.78;;;;;;;;;;5055575;28;20392;-77
2022/07/26 00:59:51;;;;;;;14.02;2.58;;;;;;;;;;5055326;28;20096;-77
2022/07/26 01:02:18;;;;;;;15.23;2.60;;;;;;;;;;5055443;28;20033;-78
2022/07/26 01:04:44;;;;;;;17.80;2.85;;;;;;;;;;5055321;28;20037;-78
2022/07/26 01:07:10;;;;;;;14.80;3.03;;;;;;;;;;5055225;28;20032;-77
2022/07/26 01:09:37;;;;;;;16.23;2.75;;;;;;;;;;5055258;28;20308;-77
2022/07/26 01:12:03;;;;;;;15.60;2.95;;;;;;;;;;5055152;28;20021;-77
2022/07/26 01:14:29;;;;;;;12.13;2.50;;;;;;;;;;5055160;28;20025;-77
2022/07/26 01:16:56;;;;;;;18.30;2.78;;;;;;;;;;5055204;28;20083;-78
2022/07/26 01:19:22;;;;;;;17.27;2.45;;;;;;;;;;5054752;28;20045;-78
2022/07/26 01:21:49;;;;;;;16.98;2.50;;;;;;;;;;5054965;28;20032;-77
2022/07/26 01:24:15;;;;;;;13.70;2.40;;;;;;;;;;5055005;28;20025;-78
2022/07/26 01:26:41;;;;;;;19.23;3.40;;;;;;;;;;5053258;28;20131;-77
2022/07/26 01:29:07;;;;;;;18.38;2.85;;;;;;;;;;5054748;28;20024;-77
2022/07/26 01:31:33;;;;;;;23.60;3.15;;;;;;;;;;5054748;28;20033;-77
2022/07/26 01:33:59;;;;;;;17.67;3.45;;;;;;;;;;5054937;28;20363;-77
2022/07/26 01:36:25;;;;;;;13.10;2.58;;;;;;;;;;5054719;28;20482;-77
2022/07/26 01:38:51;;;;;;;14.90;2.60;;;;;;;;;;5054729;28;20451;-77
2022/07/26 01:41:17;;;;;;;11.45;2.80;;;;;;;;;;5053221;28;20028;-77
2022/07/26 01:43:43;;;;;;;19.13;2.65;;;;;;;;;;5054386;28;20087;-77
2022/07/26 01:46:09;;;;;;;18.92;2.90;;;;;;;;;;5054532;28;20424;-77
2022/07/26 01:48:36;;;;;;;9.98;2.35;;;;;;;;;;5054558;28;20048;-77
2022/07/26 01:51:02;;;;;;;14.02;2.38;;;;;;;;;;5054160;28;20430;-77
2022/07/26 01:53:28;;;;;;;15.27;3.42;;;;;;;;;;5054307;28;20045;-78
2022/07/26 01:55:54;;;;;;;15.02;3.30;;;;;;;;;;5054299;28;20059;-77
2022/07/26 01:58:21;;;;;;;13.45;2.33;;;;;;;;;;5054243;28;20452;-77
2022/07/26 02:00:47;;;;;;;13.60;2.60;;;;;;;;;;5054103;28;20079;-77
2022/07/26 02:03:13;;;;;;;9.07;2.42;;;;;;;;;;5054211;28;20075;-77
2022/07/26 02:05:39;;;;;;;15.30;2.78;;;;;;;;;;5054238;28;20092;-77
2022/07/26 02:08:05;;;;;;;18.63;2.58;;;;;;;;;;5054052;28;20068;-77
2022/07/26 02:13:16;;;;;;;14.98;2.83;;;;;;;;;;5053980;28;20509;-77
2022/07/26 02:15:42;;;;;;;13.68;2.47;;;;;;;;;;5054022;28;20084;-77
2022/07/26 02:18:08;;;;;;;15.48;2.97;;;;;;;;;;5053728;28;20057;-78
2022/07/26 02:20:34;;;;;;;16.77;2.63;;;;;;;;;;5053889;28;20031;-77
2022/07/26 02:23:00;;;;;;;16.90;3.03;;;;;;;;;;5052363;28;20032;-77
2022/07/26 02:25:26;;;;;;;21.13;2.90;;;;;;;;;;5053392;28;20028;-77
2022/07/26 02:27:52;;;;;;;16.60;3.17;;;;;;;;;;5053568;28;20468;-77
2022/07/26 02:30:18;;;;;;;16.50;3.03;;;;;;;;;;5053470;28;20032;-77
2022/07/26 02:32:44;;;;;;;19.98;3.03;;;;;;;;;;5053708;28;20021;-77
2022/07/26 02:35:10;;;;;;;23.15;3.72;;;;;;;;;;5053594;28;20025;-77
2022/07/26 02:37:39;;;;;;;16.90;3.47;;;;;;;;;;5053652;28;20025;-77
2022/07/26 02:40:05;;;;;;;26.30;3.33;;;;;;;;;;5053655;28;20017;-77
2022/07/26 02:42:31;;;;;;;16.60;3.53;;;;;;;;;;5053406;28;20122;-77
2022/07/26 02:44:57;;;;;;;18.05;3.40;;;;;;;;;;5053595;28;20467;-77
2022/07/26 02:47:23;;;;;;;18.50;3.05;;;;;;;;;;5053286;28;20092;-77
2022/07/26 02:49:49;;;;;;;16.52;3.00;;;;;;;;;;5053391;28;20470;-77
2022/07/26 02:52:15;;;;;;;17.90;3.13;;;;;;;;;;5051742;28;20090;-77
2022/07/26 02:54:41;;;;;;;18.25;3.72;;;;;;;;;;5052507;28;20033;-77
2022/07/26 02:57:07;;;;;;;19.48;2.80;;;;;;;;;;5053170;28;20021;-77
2022/07/26 02:59:33;;;;;;;14.85;2.85;;;;;;;;;;5053274;28;20021;-77
2022/07/26 03:01:59;;;;;;;20.65;3.60;;;;;;;;;;5052949;28;20078;-77
2022/07/26 03:04:25;;;;;;;18.52;3.08;;;;;;;;;;5053182;28;20021;-78
2022/07/26 03:06:51;;;;;;;14.35;2.90;;;;;;;;;;5052950;28;20528;-77
2022/07/26 03:09:17;;;;;;;12.35;2.67;;;;;;;;;;5052973;28;20025;-77
2022/07/26 03:11:43;;;;;;;9.95;2.33;;;;;;;;;;5053216;28;20439;-77
2022/07/26 03:14:09;;;;;;;13.38;3.28;;;;;;;;;;5052955;28;20047;-77
2022/07/26 03:16:35;;;;;;;13.52;2.65;;;;;;;;;;5052825;28;20416;-77
2022/07/26 03:19:01;;;;;;;8.50;2.60;;;;;;;;;;5052815;28;20059;-78
2022/07/26 03:21:27;;;;;;;8.27;2.40;;;;;;;;;;5052686;28;20025;-78
2022/07/26 03:23:53;;;;;;;13.52;2.80;;;;;;;;;;5052665;28;20033;-77
2022/07/26 03:26:20;;;;;;;21.70;3.00;;;;;;;;;;5052627;28;20032;-77
2022/07/26 03:28:46;;;;;;;14.55;2.90;;;;;;;;;;5052551;28;20029;-78
2022/07/26 03:31:12;;;;;;;12.00;3.05;;;;;;;;;;5052489;28;20418;-78
2022/07/26 03:33:38;;;;;;;11.65;2.92;;;;;;;;;;5052597;28;20485;-77
2022/07/26 03:36:05;;;;;;;14.40;3.28;;;;;;;;;;5052344;28;20017;-77
2022/07/26 03:38:31;;;;;;;12.73;3.00;;;;;;;;;;5052362;28;20041;-77
2022/07/26 03:40:57;;;;;;;9.70;2.97;;;;;;;;;;5050794;28;20545;-77
2022/07/26 03:43:23;;;;;;;18.27;3.50;;;;;;;;;;5052225;28;20043;-77
2022/07/26 03:45:49;;;;;;;11.48;2.95;;;;;;;;;;5052385;28;20100;-77
2022/07/26 03:48:15;;;;;;;13.23;3.70;;;;;;;;;;5052241;28;20056;-78
2022/07/26 03:50:41;;;;;;;11.60;3.10;;;;;;;;;;5051887;28;20332;-77
2022/07/26 03:53:08;;;;;;;11.55;3.47;;;;;;;;;;5052197;28;20047;-77
2022/07/26 03:58:18;;;;;;;12.23;3.65;;;;;;;;;;5052142;28;20044;-77
2022/07/26 04:00:45;;;;;;;17.90;3.50;;;;;;;;;;5052286;28;20053;-77
2022/07/26 04:03:11;;;;;;;16.75;3.17;;;;;;;;;;5050980;28;20029;-77
2022/07/26 04:05:37;;;;;;;9.13;2.85;;;;;;;;;;5051968;28;20100;-78
2022/07/26 04:08:03;;;;;;;10.93;3.70;;;;;;;;;;5052144;28;20084;-77
2022/07/26 04:10:29;;;;;;;11.68;3.33;;;;;;;;;;5052157;28;20052;-78
2022/07/26 04:12:55;;;;;;;9.68;3.00;;;;;;;;;;5051888;28;20463;-77
2022/07/26 04:15:21;;;;;;;13.60;3.83;;;;;;;;;;5052284;28;20068;-77
2022/07/26 04:17:47;;;;;;;11.68;3.17;;;;;;;;;;5051955;28;20155;-78
2022/07/26 04:20:14;;;;;;;14.68;2.80;;;;;;;;;;5050405;28;20112;-78
2022/07/26 04:22:40;;;;;;;10.43;3.03;;;;;;;;;;5051924;28;20111;-78
2022/07/26 04:25:06;;;;;;;10.27;3.25;;;;;;;;;;5051890;28;20025;-77
2022/07/26 04:27:32;;;;;;;10.93;3.00;;;;;;;;;;5052069;28;20056;-78
2022/07/26 04:29:59;;;;;;;12.30;3.03;;;;;;;;;;5052263;28;20106;-78
2022/07/26 04:32:25;;;;;;;12.52;3.10;;;;;;;;;;5052104;28;20029;-78
2022/07/26 04:34:51;;;;;;;11.27;3.22;;;;;;;;;;5051729;28;20024;-78
2022/07/26 04:37:18;;;;;;;13.75;2.95;;;;;;;;;;5052123;28;20374;-79
2022/07/26 04:39:44;;;;;;;9.05;3.10;;;;;;;;;;5051812;28;20036;-78
2022/07/26 04:42:10;;;;;;;14.45;3.50;;;;;;;;;;5050354;28;20029;-79
2022/07/26 04:44:36;;;;;;;9.65;2.78;;;;;;;;;;5051827;28;20029;-78
2022/07/26 04:47:02;;;;;;;8.82;2.72;;;;;;;;;;5051175;28;20032;-79
2022/07/26 04:49:28;;;;;;;7.13;2.60;;;;;;;;;;5051075;28;20087;-79
2022/07/26 04:51:54;;;;;;;11.60;3.35;;;;;;;;;;5051041;28;20344;-79
2022/07/26 04:54:21;;;;;;;11.30;3.22;;;;;;;;;;5051540;28;20101;-79
2022/07/26 04:56:47;;;;;;;16.48;2.90;;;;;;;;;;5051426;28;20025;-79
2022/07/26 04:59:13;;;;;;;10.98;2.92;;;;;;;;;;5051629;28;20029;-79
2022/07/26 05:01:39;;;;;;;10.35;3.47;;;;;;;;;;5051274;28;20033;-79
2022/07/26 05:04:05;;;;;;;12.63;3.30;;;;;;;;;;5051330;28;20064;-79
2022/07/26 05:06:31;;;;;;;10.07;3.00;;;;;;;;;;5051181;28;20533;-79
2022/07/26 05:08:58;;;;;;;11.25;3.05;;;;;;;;;;5050338;28;20029;-79
2022/07/26 05:11:24;;;;;;;11.15;3.42;;;;;;;;;;5051155;28;20021;-79
2022/07/26 05:13:50;;;;;;;12.55;3.33;;;;;;;;;;5051227;28;20032;-79
2022/07/26 05:16:16;;;;;;;9.07;3.47;;;;;;;;;;5051466;28;20013;-79
2022/07/26 05:18:42;;;;;;;10.65;2.88;;;;;;;;;;5053190;28;20045;-79
2022/07/26 05:21:09;;;;;;;11.00;3.10;;;;;;;;;;5053420;28;20031;-79
2022/07/26 05:23:35;;;;;;;9.07;2.90;;;;;;;;;;5054696;28;20027;-79
2022/07/26 05:26:01;;;;;;;12.82;2.70;;;;;;;;;;5054572;28;20032;-79
2022/07/26 05:28:27;;;;;;;15.65;3.15;;;;;;;;;;5054538;28;20029;-79
2022/07/26 05:30:53;;;;;;;10.88;2.70;;;;;;;;;;5054651;28;20025;-79
2022/07/26 05:33:19;;;;;;;8.70;2.90;;;;;;;;;;5054638;28;20017;-79
2022/07/26 05:35:45;;;;;;;6.70;3.10;;;;;;;;;;5054587;28;20027;-79
2022/07/26 05:38:11;;;;;;;13.93;3.03;;;;;;;;;;5052678;28;20103;-79
2022/07/26 05:40:37;;;;;;;14.88;3.03;;;;;;;;;;5054644;28;20029;-78
2022/07/26 05:43:03;;;;;;;12.60;2.58;;;;;;;;;;5054322;28;20056;-76
2022/07/26 05:45:29;;;;;;;11.55;2.70;;;;;;;;;;5054090;28;20031;-78
2022/07/26 05:47:55;;;;;;;9.80;2.55;;;;;;;;;;5052440;28;20057;-78
2022/07/26 05:50:21;;;;;;;7.53;2.35;;;;;;;;;;5053388;28;20059;-78
2022/07/26 05:52:48;;;;;;;6.43;2.20;;;;;;;;;;5053778;28;20032;-78
2022/07/26 05:55:14;;;;;;;14.32;2.75;;;;;;;;;;5053864;28;20442;-78
2022/07/26 05:57:40;;;;;;;7.25;2.65;;;;;;;;;;5053735;28;20476;-78
2022/07/26 06:00:07;;;;;;;5.53;2.50;;;;;;;;;;5053709;28;20056;-78
2022/07/26 06:02:33;;;;;;;7.88;2.65;;;;;;;;;;5053582;28;20025;-78
2022/07/26 06:04:59;;;;;;;9.77;2.58;;;;;;;;;;5053711;28;20469;-78
2022/07/26 06:07:25;;;;;;;8.40;2.35;;;;;;;;;;5048557;28;20025;-79
2022/07/26 06:09:51;;;;;;;9.38;2.40;;;;;;;;;;5033735;28;20029;-78
2022/07/26 06:12:17;;;;;;;10.23;2.97;;;;;;;;;;5032120;28;20031;-78
2022/07/26 06:14:43;;;;;;;13.48;3.28;;;;;;;;;;5033619;28;20064;-78
2022/07/26 06:17:09;;;;;;;9.45;3.03;;;;;;;;;;5033424;28;20065;-77
2022/07/26 06:19:36;;;;;;;7.82;2.28;;;;;;;;;;5033033;28;20374;-75
2022/07/26 06:22:02;;;;;;;7.60;2.10;;;;;;;;;;5043459;28;20025;-75
2022/07/26 06:24:28;;;;;;;6.70;1.70;;;;;;;;;;5052768;28;20052;-75
2022/07/26 06:26:55;;;;;;;3.80;1.58;;;;;;;;;;5051358;28;20479;-76
2022/07/26 06:29:21;;;;;;;8.55;2.05;;;;;;;;;;5051816;28;20025;-76
2022/07/26 06:31:48;;;;;;;6.93;1.80;;;;;;;;;;5052928;28;20102;-76
2022/07/26 06:34:14;;;;;;;6.63;1.80;;;;;;;;;;5052945;28;20533;-76
2022/07/26 06:36:40;;;;;;;5.10;1.55;;;;;;;;;;5052731;28;20039;-76
2022/07/26 06:39:06;;;;;;;4.25;1.50;;;;;;;;;;5052378;28;20068;-75
2022/07/26 06:41:32;;;;;;;8.60;1.38;;;;;;;;;;5051743;28;20317;-75
2022/07/26 06:43:58;;;;;;;5.15;1.30;;;;;;;;;;5052475;28;20040;-75
2022/07/26 06:46:24;;;;;;;7.25;2.47;;;;;;;;;;5052168;28;20154;-75
2022/07/26 06:48:50;;;;;;;5.22;1.48;;;;;;;;;;5051934;28;20713;-75
2022/07/26 06:51:16;;;;;;;6.65;1.48;;;;;;;;;;5052106;28;20036;-75
2022/07/26 06:53:42;;;;;;;6.28;1.40;;;;;;;;;;5052127;28;20450;-76
2022/07/26 06:56:08;;;;;;;6.38;1.52;;;;;;;;;;5052116;28;20024;-76
2022/07/26 06:58:34;;;;;;;2.88;1.50;;;;;;;;;;5052184;28;20036;-76
2022/07/26 07:01:00;;;;;;;8.63;2.05;;;;;;;;;;5051830;28;20387;-76
2022/07/26 07:03:26;;;;;;;13.68;2.58;;;;;;;;;;5051537;28;20029;-76
2022/07/26 07:05:52;;;;;;;8.25;3.13;;;;;;;;;;5051574;28;20364;-76
2022/07/26 07:08:20;;;;;;;5.80;2.25;;;;;;;;;;5051037;28;20032;-75
2022/07/26 07:10:46;;;;;;;11.63;2.63;;;;;;;;;;5050995;28;20482;-75
2022/07/26 07:13:12;;;;;;;6.15;2.30;;;;;;;;;;5050914;28;20025;-75
2022/07/26 07:15:38;;;;;;;5.00;1.77;;;;;;;;;;5051852;28;20017;-75
2022/07/26 07:18:04;;;;;;;3.55;1.92;;;;;;;;;;5051627;28;20784;-75
2022/07/26 07:20:30;;;;;;;10.88;2.35;;;;;;;;;;5051559;28;20028;-75
2022/07/26 07:22:56;;;;;;;8.07;2.40;;;;;;;;;;5051534;28;20029;-76
2022/07/26 07:25:23;;;;;;;9.45;2.10;;;;;;;;;;5050241;28;20029;-75
2022/07/26 07:27:49;;;;;;;10.18;2.13;;;;;;;;;;5050803;28;20021;-76
2022/07/26 07:30:15;;;;;;;6.60;2.03;;;;;;;;;;5051517;28;20032;-75
2022/07/26 07:32:41;;;;;;;7.82;2.03;;;;;;;;;;5051495;28;20032;-75
2022/07/26 07:35:08;;;;;;;5.13;1.83;;;;;;;;;;5052155;28;20025;-74
2022/07/26 07:37:35;;;;;;;7.75;1.92;;;;;;;;;;5051400;28;20025;-79
2022/07/26 07:40:08;;;;;;;9.05;1.70;;;;;;;;;;5054123;28;20032;-78
2022/07/26 07:48:05;;;;;;;10.73;1.77;;;;;;;;;;4986193;28;20085;-77
2022/07/26 07:50:32;;;;;;;11.93;2.03;;;;;;;;;;4974425;28;20413;-76
2022/07/26 07:52:58;;;;;;;6.53;1.30;;;;;;;;;;4992704;28;20085;-76
2022/07/26 07:55:24;;;;;;;5.70;1.08;;;;;;;;;;4990307;28;20030;-76
2022/07/26 07:57:50;;;;;;;6.53;1.42;;;;;;;;;;4974631;28;20073;-76
2022/07/26 08:00:18;;;;;;;9.70;1.35;;;;;;;;;;4992952;28;20076;-75
2022/07/26 08:02:45;;;;;;;6.88;1.50;;;;;;;;;;4992761;28;20558;-76
2022/07/26 08:05:11;;;;;;;11.50;1.45;;;;;;;;;;4993556;28;20026;-80
2022/07/26 08:07:37;;;;;;;8.38;1.38;;;;;;;;;;4993598;28;20026;-82
2022/07/26 08:10:03;;;;;;;5.45;1.20;;;;;;;;;;4993467;28;20022;-80
2022/07/26 08:12:30;;;;;;;7.25;0.90;;;;;;;;;;4993465;28;20030;-80
2022/07/26 08:14:56;;;;;;;5.13;1.13;;;;;;;;;;4993793;28;20384;-79
2022/07/26 08:17:22;;;;;;;4.53;0.88;;;;;;;;;;4975692;28;20053;-79
2022/07/26 08:19:48;;;;;;;8.18;1.15;;;;;;;;;;4992586;28;20041;-77
2022/07/26 08:22:14;;;;;;;10.27;1.05;;;;;;;;;;4991923;28;20123;-77
2022/07/26 08:24:40;;;;;;;9.10;1.50;;;;;;;;;;4991897;28;20503;-81
2022/07/26 08:27:06;;;;;;;5.93;1.00;;;;;;;;;;4976265;28;20847;-80
2022/07/26 08:29:34;;;;;;;4.43;1.00;;;;;;;;;;4992225;28;20457;-80
2022/07/26 08:32:00;;;;;;;3.83;1.20;;;;;;;;;;4994297;28;20040;-81
2022/07/26 08:34:26;;;;;;;3.50;0.80;;;;;;;;;;4998331;28;20041;-80
2022/07/26 08:36:52;;;;;;;3.53;0.70;;;;;;;;;;4975212;28;20342;-80
2022/07/26 08:39:19;;;;;;;5.35;0.70;;;;;;;;;;5003915;28;20027;-81
2022/07/26 08:41:45;;;;;;;3.22;0.90;;;;;;;;;;4964824;28;20029;-80
2022/07/26 08:44:11;;;;;;;1.88;0.68;;;;;;;;;;4990985;28;20432;-81
2022/07/26 08:46:38;;;;;;;1.92;0.70;;;;;;;;;;4971038;28;20134;-81
2022/07/26 08:49:06;;;;;;;3.97;0.70;;;;;;;;;;4993079;28;20023;-81
2022/07/26 08:51:37;;;;;;;1.40;0.63;;;;;;;;;;4991144;28;20031;-77
2022/07/26 08:54:03;;;;;;;2.58;0.40;;;;;;;;;;4996968;28;20505;-77
2022/07/26 08:59:32;;;;;;;5.68;0.80;;;;;;;;;;4995723;28;20064;-77
2022/07/26 09:02:01;;;;;;;2.13;0.68;;;;;;;;;;4978050;28;20080;-79
2022/07/26 09:04:28;;;;;;;2.53;0.68;;;;;;;;;;4977701;28;20126;-79
2022/07/26 09:06:56;;;;;;;6.97;0.80;;;;;;;;;;4979118;28;20030;-81
2022/07/26 09:09:22;;;;;;;6.80;0.90;;;;;;;;;;4996472;28;20034;-80
2022/07/26 09:11:48;;;;;;;2.50;1.02;;;;;;;;;;4995982;28;20030;-81
2022/07/26 09:14:14;;;;;;;2.65;0.70;;;;;;;;;;5224237;22;20053;-77
2022/07/26 09:16:40;;;;;;;5.20;1.17;;;;;;;;;;5012257;28;20101;-77
2022/07/26 09:19:21;;;;;;;2.90;0.70;;;;;;;;;;5014471;28;20084;-77
2022/07/26 09:21:47;;;;;;;5.35;0.70;;;;;;;;;;5013713;28;20539;-77
2022/07/26 09:24:13;;;;;;;6.70;1.27;;;;;;;;;;5015093;28;20494;-78
2022/07/26 09:26:39;;;;;;;3.45;0.68;;;;;;;;;;5015183;28;20383;-77
2022/07/26 09:29:06;;;;;;;2.88;0.70;;;;;;;;;;5014915;28;20030;-77
2022/07/26 09:31:33;;;;;;;8.00;0.90;;;;;;;;;;5014983;28;20406;-78
2022/07/26 09:33:59;;;;;;;1.40;0.57;;;;;;;;;;5014157;28;20033;-78
2022/07/26 09:36:26;;;;;;;6.57;1.20;;;;;;;;;;5013345;28;20041;-78
2022/07/26 09:38:53;;;;;;;5.00;0.98;;;;;;;;;;5014878;28;20049;-75
2022/07/26 09:41:21;;;;;;;2.72;0.63;;;;;;;;;;5014219;28;20080;-75
2022/07/26 09:43:47;;;;;;;3.40;0.80;;;;;;;;;;5014421;28;20026;-75
2022/07/26 09:46:13;;;;;;;5.05;0.63;;;;;;;;;;5014056;28;20472;-75
2022/07/26 09:48:39;;;;;;;2.30;0.55;;;;;;;;;;5014261;28;20418;-75
2022/07/26 09:51:06;;;;;;;3.83;0.73;;;;;;;;;;5014036;28;20061;-75
2022/07/26 09:53:42;;;;;;;5.43;0.98;;;;;;;;;;5014275;28;20028;-75
2022/07/26 09:56:08;;;;;;;6.47;0.80;;;;;;;;;;5012584;28;20404;-75
2022/07/26 09:58:35;;;;;;;4.53;0.60;;;;;;;;;;5011187;28;20476;-76
2022/07/26 10:01:01;;;;;;;3.60;0.80;;;;;;;;;;5005406;28;20112;-76
2022/07/26 10:03:28;;;;;;;5.50;1.00;;;;;;;;;;5004809;28;20108;-75
2022/07/26 10:05:54;;;;;;;2.53;0.70;;;;;;;;;;5002738;28;20160;-75
2022/07/26 10:08:20;;;;;;;3.90;0.80;;;;;;;;;;5005124;28;20118;-75
2022/07/26 10:10:49;;;;;;;9.32;1.25;;;;;;;;;;5004261;28;20068;-76
2022/07/26 10:13:15;;;;;;;6.53;1.38;;;;;;;;;;5007915;28;20033;-76
2022/07/26 10:15:45;;;;;;;5.40;0.93;;;;;;;;;;5012823;28;20045;-77
2022/07/26 10:18:31;;;;;;;5.25;1.20;;;;;;;;;;5027910;28;20076;-78
2022/07/26 10:20:57;;;;;;;3.22;1.00;;;;;;;;;;5013479;28;20109;-75
2022/07/26 10:23:42;;;;;;;4.38;1.05;;;;;;;;;;5010550;28;20101;-75
2022/07/26 10:26:09;;;;;;;8.77;1.27;;;;;;;;;;5002947;28;20383;-76
2022/07/26 10:28:36;;;;;;;5.53;1.45;;;;;;;;;;5004140;28;20026;-76
2022/07/26 10:31:20;;;;;;;6.75;1.13;;;;;;;;;;5005099;28;20022;-75
2022/07/26 10:33:47;;;;;;;4.13;0.70;;;;;;;;;;5005131;28;20022;-76
2022/07/26 10:36:23;;;;;;;6.80;0.98;;;;;;;;;;5004146;28;20022;-75
2022/07/26 10:38:57;;;;;;;3.85;0.90;;;;;;;;;;5006071;28;20064;-75
2022/07/26 10:41:32;;;;;;;5.25;0.88;;;;;;;;;;5002708;28;20026;-78
2022/07/26 10:44:17;;;;;;;5.18;0.77;;;;;;;;;;5004142;28;20108;-75
2022/07/26 10:46:56;;;;;;;3.58;0.60;;;;;;;;;;4994655;28;20034;-82
2022/07/26 10:49:33;;;;;;;5.20;0.68;;;;;;;;;;4994708;28;20385;-84
2022/07/26 10:52:18;;;;;;;5.97;1.05;;;;;;;;;;5013856;28;20026;-84
2022/07/26 10:55:03;;;;;;;6.57;0.90;;;;;;;;;;4994207;28;20416;-81
2022/07/26 10:57:30;;;;;;;4.90;0.70;;;;;;;;;;5008682;28;20018;-82
2022/07/26 10:59:57;;;;;;;5.78;1.48;;;;;;;;;;5012342;28;20091;-81
2022/07/26 11:02:25;;;;;;;4.18;0.77;;;;;;;;;;5011209;28;20026;-83
2022/07/26 11:04:58;;;;;;;3.53;0.50;;;;;;;;;;4995466;28;20538;-77
2022/07/26 11:07:24;;;;;;;3.42;0.57;;;;;;;;;;5013627;28;20044;-80
2022/07/26 11:09:54;;;;;;;7.82;0.95;;;;;;;;;;5012586;28;20025;-81
2022/07/26 11:12:20;;;;;;;2.50;0.60;;;;;;;;;;5012455;28;20175;-80
2022/07/26 11:14:46;;;;;;;4.03;1.02;;;;;;;;;;5013479;28;20050;-81
2022/07/26 11:17:25;;;;;;;4.75;0.70;;;;;;;;;;5012821;28;20022;-81
2022/07/26 11:19:51;;;;;;;6.05;1.00;;;;;;;;;;5013802;28;20372;-81
2022/07/26 11:22:17;;;;;;;7.28;0.98;;;;;;;;;;5013822;28;20033;-87
2022/07/26 11:24:45;;;;;;;12.15;0.98;;;;;;;;;;5013532;28;20053;-85
2022/07/26 11:27:11;;;;;;;6.03;0.90;;;;;;;;;;5013262;28;20029;-87
2022/07/26 11:29:37;;;;;;;6.18;1.00;;;;;;;;;;5011255;28;20030;-88
2022/07/26 11:32:04;;;;;;;17.60;1.30;;;;;;;;;;5001947;28;20033;-88
2022/07/26 11:34:34;;;;;;;6.18;1.10;;;;;;;;;;5012403;28;20586;-87
2022/07/26 11:37:02;;;;;;;7.75;1.10;;;;;;;;;;5008731;28;20056;-87
2022/07/26 11:39:29;;;;;;;5.82;1.48;;;;;;;;;;5012833;28;20052;-78
2022/07/26 11:42:05;;;;;;;3.58;1.00;;;;;;;;;;5012154;28;20048;-79
2022/07/26 11:44:32;;;;;;;8.73;1.20;;;;;;;;;;4991269;28;20045;-78
2022/07/26 11:46:58;;;;;;;4.80;0.98;;;;;;;;;;5009590;28;20147;-75
2022/07/26 11:49:26;;;;;;;4.85;0.90;;;;;;;;;;5002727;28;20061;-75
2022/07/26 11:51:59;;;;;;;5.90;1.10;;;;;;;;;;4997546;28;20361;-75
2022/07/26 11:54:26;;;;;;;9.52;0.90;;;;;;;;;;5008735;28;20444;-75
2022/07/26 11:57:02;;;;;;;7.38;0.95;;;;;;;;;;5007828;28;20040;-75
2022/07/26 11:59:29;;;;;;;11.13;1.17;;;;;;;;;;5008279;28;20030;-75
2022/07/26 12:01:56;;;;;;;5.63;0.80;;;;;;;;;;5008198;28;20030;-74
2022/07/26 12:04:26;;;;;;;7.82;1.25;;;;;;;;;;5008449;28;20033;-75
2022/07/26 12:06:53;;;;;;;4.75;0.80;;;;;;;;;;5001747;28;20080;-75
2022/07/26 12:09:38;;;;;;;3.13;0.80;;;;;;;;;;5002952;28;20045;-75
2022/07/26 12:12:09;;;;;;;4.70;0.90;;;;;;;;;;4993868;28;20018;-75
2022/07/26 12:14:36;;;;;;;5.50;1.10;;;;;;;;;;5007099;28;20639;-75
2022/07/26 12:17:11;;;;;;;4.72;0.75;;;;;;;;;;5007960;28;20030;-79
2022/07/26 12:19:38;;;;;;;4.72;1.02;;;;;;;;;;5009718;28;20104;-79
2022/07/26 12:22:14;;;;;;;5.72;0.75;;;;;;;;;;5009401;28;20029;-79
2022/07/26 12:24:40;;;;;;;3.58;0.70;;;;;;;;;;5009422;28;20030;-79
2022/07/26 12:27:06;;;;;;;6.05;0.85;;;;;;;;;;5009459;28;20041;-79
2022/07/26 12:29:35;;;;;;;2.72;0.60;;;;;;;;;;5012959;28;20576;-79
2022/07/26 12:32:07;;;;;;;3.83;0.73;;;;;;;;;;5013512;28;20018;-78
2022/07/26 12:34:34;;;;;;;8.00;0.80;;;;;;;;;;5012102;28;20511;-79
2022/07/26 12:37:09;;;;;;;5.43;0.73;;;;;;;;;;5013755;28;20443;-79
2022/07/26 12:39:35;;;;;;;5.97;1.02;;;;;;;;;;5007526;28;20054;-78
2022/07/26 12:42:19;;;;;;;6.18;1.40;;;;;;;;;;5013450;28;20029;-78
2022/07/26 12:44:45;;;;;;;6.78;1.10;;;;;;;;;;5013504;28;20037;-79
2022/07/26 12:47:11;;;;;;;5.30;1.02;;;;;;;;;;4995602;28;20107;-79
2022/07/26 12:49:37;;;;;;;8.55;1.20;;;;;;;;;;4995381;28;20765;-79
2022/07/26 12:52:03;;;;;;;8.65;1.20;;;;;;;;;;5012746;28;20064;-79
2022/07/26 12:54:29;;;;;;;9.95;1.40;;;;;;;;;;5012905;28;20425;-79
2022/07/26 12:56:55;;;;;;;6.57;0.77;;;;;;;;;;5013053;28;20108;-78
2022/07/26 12:59:21;;;;;;;9.60;1.15;;;;;;;;;;5012647;28;20030;-78
2022/07/26 13:01:48;;;;;;;8.57;1.08;;;;;;;;;;5013002;28;20085;-79
2022/07/26 13:04:14;;;;;;;8.23;1.17;;;;;;;;;;5013151;28;20148;-79
2022/07/26 13:06:40;;;;;;;8.07;1.27;;;;;;;;;;5012608;28;20026;-79
2022/07/26 13:09:06;;;;;;;5.43;1.23;;;;;;;;;;5012594;28;20096;-79
2022/07/26 13:11:32;;;;;;;6.38;1.10;;;;;;;;;;5009056;28;20053;-78
2022/07/26 13:13:58;;;;;;;9.05;1.63;;;;;;;;;;5013524;28;20120;-79
2022/07/26 13:16:24;;;;;;;5.80;1.00;;;;;;;;;;5003442;28;20129;-80
2022/07/26 13:18:50;;;;;;;5.90;1.40;;;;;;;;;;5014045;28;20061;-80
2022/07/26 13:21:16;;;;;;;7.30;1.42;;;;;;;;;;5008903;28;20053;-80
2022/07/26 13:23:42;;;;;;;4.43;0.88;;;;;;;;;;5007308;28;20113;-80
2022/07/26 13:26:07;;;;;;;8.20;1.20;;;;;;;;;;5007355;28;20029;-80
2022/07/26 13:28:34;;;;;;;8.80;1.45;;;;;;;;;;5009817;28;20060;-80
2022/07/26 13:31:00;;;;;;;11.15;1.20;;;;;;;;;;5005409;28;20026;-79
2022/07/26 13:33:26;;;;;;;7.50;1.40;;;;;;;;;;5001232;28;20498;-81
2022/07/26 13:35:53;;;;;;;8.32;1.30;;;;;;;;;;5004538;28;20030;-80
2022/07/26 13:38:19;;;;;;;11.38;1.80;;;;;;;;;;5003214;28;20033;-86
2022/07/26 13:40:45;;;;;;;12.30;1.27;;;;;;;;;;5014321;28;20049;-87
2022/07/26 13:43:11;;;;;;;9.93;2.20;;;;;;;;;;5010270;28;20022;-86
2022/07/26 13:45:37;;;;;;;11.05;1.42;;;;;;;;;;5000654;28;20065;-80
2022/07/26 13:48:03;;;;;;;9.30;1.33;;;;;;;;;;5015858;28;20046;-79
2022/07/26 13:50:29;;;;;;;12.45;1.33;;;;;;;;;;4991398;28;20023;-80
2022/07/26 13:52:55;;;;;;;7.28;1.23;;;;;;;;;;4978042;28;20497;-79
2022/07/26 13:55:21;;;;;;;11.20;1.30;;;;;;;;;;4983193;28;20029;-79
2022/07/26 13:57:47;;;;;;;5.80;1.10;;;;;;;;;;4991351;28;20102;-80
2022/07/26 14:00:14;;;;;;;11.02;1.40;;;;;;;;;;4975810;28;20077;-80
2022/07/26 14:02:40;;;;;;;8.43;1.55;;;;;;;;;;4992611;28;20030;-80
2022/07/26 14:05:06;;;;;;;5.22;1.00;;;;;;;;;;4988951;28;20037;-80
2022/07/26 14:07:32;;;;;;;8.05;1.35;;;;;;;;;;4981586;28;20189;-79
2022/07/26 14:09:58;;;;;;;10.93;1.70;;;;;;;;;;4991927;28;20196;-79
2022/07/26 14:12:24;;;;;;;5.78;1.10;;;;;;;;;;4981162;28;20152;-80
2022/07/26 14:14:50;;;;;;;8.90;2.15;;;;;;;;;;4982857;28;21557;-79
2022/07/26 14:17:16;;;;;;;33.40;3.85;;;;;;;;;;4980165;28;20030;-79
2022/07/26 14:19:42;;;;;;;212.32;24.40;;;;;;;;;;4973344;28;20016;-81
2022/07/26 14:22:08;;;;;;;16.98;2.03;;;;;;;;;;4987162;28;20092;-79
2022/07/26 14:43:04;;;;;;;28.77;2.67;;;;;;;;;;5080415;28;20391;-75
2022/07/26 14:45:30;;;;;;;33.33;3.03;;;;;;;;;;5087017;28;20476;-74
2022/07/26 14:47:56;;;;;;;13.82;1.65;;;;;;;;;;5088446;28;20036;-74
2022/07/26 14:50:24;;;;;;;15.25;1.55;;;;;;;;;;5088565;28;20020;-75
2022/07/26 14:52:51;;;;;;;13.15;1.05;;;;;;;;;;5088851;28;20024;-76
2022/07/26 14:55:17;;;;;;;5.25;0.80;;;;;;;;;;5088119;28;20386;-77
2022/07/26 14:57:43;;;;;;;7.40;1.02;;;;;;;;;;5088168;28;20040;-77
2022/07/26 15:00:10;;;;;;;4.95;1.10;;;;;;;;;;5088394;28;20021;-77
2022/07/26 15:02:40;;;;;;;5.47;0.95;;;;;;;;;;5088172;28;20028;-76
2022/07/26 15:05:06;;;;;;;4.28;1.10;;;;;;;;;;5088539;28;20462;-77
2022/07/26 15:07:32;;;;;;;3.35;0.88;;;;;;;;;;5085800;28;20111;-76
2022/07/26 15:09:58;;;;;;;7.93;1.10;;;;;;;;;;5088240;28;20075;-77